createdAt,value
2018-07-26T00:00:53.916Z,20.70
2018-07-26T00:03:22.707Z,20.80
2018-07-26T00:05:51.492Z,20.70
2018-07-26T00:08:20.291Z,20.70
2018-07-26T00:10:49.091Z,20.70
2018-07-26T00:13:17.876Z,20.70
2018-07-26T00:15:46.660Z,20.60
2018-07-26T00:18:15.451Z,20.60
2018-07-26T00:20:44.244Z,20.50
2018-07-26T00:23:13.032Z,20.50
2018-07-26T00:25:41.820Z,20.40
2018-07-26T00:28:10.667Z,20.40
2018-07-26T00:30:39.437Z,20.40
2018-07-26T00:33:08.203Z,20.50
2018-07-26T00:35:36.987Z,20.40
2018-07-26T00:38:05.887Z,20.40
2018-07-26T00:40:34.700Z,20.30
2018-07-26T00:43:03.531Z,20.40
2018-07-26T00:45:33.689Z,20.30
2018-07-26T00:48:03.074Z,20.30
2018-07-26T00:50:31.992Z,20.40
2018-07-26T00:53:00.789Z,20.30
2018-07-26T00:55:29.752Z,20.30
2018-07-26T00:57:58.570Z,20.30
2018-07-26T01:00:27.368Z,20.20
2018-07-26T01:02:56.127Z,20.20
2018-07-26T01:05:24.951Z,20.20
2018-07-26T01:07:53.732Z,20.20
2018-07-26T01:10:22.534Z,20.20
2018-07-26T01:12:51.311Z,20.20
2018-07-26T01:15:20.135Z,20.10
2018-07-26T01:17:48.923Z,20.10
2018-07-26T01:20:17.711Z,20.10
2018-07-26T01:22:46.479Z,20.00
2018-07-26T01:25:15.284Z,19.90
2018-07-26T01:27:44.071Z,19.90
2018-07-26T01:30:12.841Z,19.90
2018-07-26T01:32:41.658Z,19.90
2018-07-26T01:35:10.444Z,19.90
2018-07-26T01:37:39.227Z,19.90
2018-07-26T01:40:08.073Z,19.70
2018-07-26T01:42:49.269Z,19.70
2018-07-26T01:45:18.060Z,19.70
2018-07-26T01:47:46.871Z,19.70
2018-07-26T01:50:15.684Z,19.60
2018-07-26T01:52:44.468Z,19.70
2018-07-26T01:55:13.275Z,19.60
2018-07-26T01:57:42.107Z,19.60
2018-07-26T02:00:10.907Z,19.60
2018-07-26T02:02:39.700Z,19.60
2018-07-26T02:05:08.488Z,19.50
2018-07-26T02:07:37.291Z,19.50
2018-07-26T02:10:06.092Z,19.40
2018-07-26T02:12:34.925Z,19.40
2018-07-26T02:15:03.748Z,19.40
2018-07-26T02:17:32.555Z,19.40
2018-07-26T02:20:01.344Z,19.30
2018-07-26T02:22:31.376Z,19.30
2018-07-26T02:25:00.168Z,19.20
2018-07-26T02:27:29.093Z,19.10
2018-07-26T02:29:57.908Z,19.10
2018-07-26T02:32:26.721Z,19.10
2018-07-26T02:34:55.537Z,19.10
2018-07-26T02:37:24.337Z,19.10
2018-07-26T02:42:21.609Z,19.00
2018-07-26T02:44:50.422Z,18.90
2018-07-26T02:47:19.199Z,18.90
2018-07-26T02:49:48.000Z,18.90
2018-07-26T02:52:16.809Z,18.90
2018-07-26T02:54:45.630Z,18.80
2018-07-26T02:57:14.536Z,18.80
2018-07-26T02:59:43.341Z,18.80
2018-07-26T03:04:40.635Z,18.70
2018-07-26T03:07:09.447Z,18.70
2018-07-26T03:09:38.236Z,18.70
2018-07-26T03:12:07.050Z,18.70
2018-07-26T03:14:41.236Z,18.70
2018-07-26T03:17:11.529Z,18.70
2018-07-26T03:19:40.435Z,18.60
2018-07-26T03:22:09.422Z,18.60
2018-07-26T03:24:38.339Z,18.60
2018-07-26T03:27:07.698Z,18.60
2018-07-26T03:32:04.969Z,18.50
2018-07-26T03:34:33.767Z,18.50
2018-07-26T03:37:02.576Z,18.50
2018-07-26T03:39:31.611Z,18.60
2018-07-26T03:42:00.440Z,18.50
2018-07-26T03:44:29.301Z,18.50
2018-07-26T03:46:58.703Z,18.40
2018-07-26T03:49:27.807Z,18.40
2018-07-26T03:51:56.607Z,18.40
2018-07-26T03:54:25.561Z,18.40
2018-07-26T03:56:54.359Z,18.30
2018-07-26T03:59:23.155Z,18.30
2018-07-26T04:01:51.976Z,18.30
2018-07-26T04:04:20.767Z,18.40
2018-07-26T04:06:49.596Z,18.40
2018-07-26T04:09:18.392Z,18.40
2018-07-26T04:11:47.376Z,18.40
2018-07-26T04:14:16.172Z,18.40
2018-07-26T04:16:45.004Z,18.40
2018-07-26T04:19:13.842Z,18.30
2018-07-26T04:21:42.640Z,18.40
2018-07-26T04:24:11.435Z,18.40
2018-07-26T04:29:08.790Z,18.40
2018-07-26T04:31:37.688Z,18.40
2018-07-26T04:34:06.496Z,18.40
2018-07-26T04:39:06.500Z,18.40
2018-07-26T04:41:35.535Z,18.40
2018-07-26T04:44:04.360Z,18.40
2018-07-26T04:46:33.170Z,18.40
2018-07-26T04:49:01.968Z,18.40
2018-07-26T04:51:30.743Z,18.40
2018-07-26T04:53:59.615Z,18.40
2018-07-26T04:56:28.655Z,18.40
2018-07-26T04:58:57.560Z,18.50
2018-07-26T05:01:26.347Z,18.50
2018-07-26T05:03:55.327Z,18.60
2018-07-26T05:06:24.175Z,18.60
2018-07-26T05:08:53.004Z,18.70
2018-07-26T05:11:21.800Z,18.70
2018-07-26T05:13:50.610Z,18.80
2018-07-26T05:16:19.416Z,18.80
2018-07-26T05:18:48.243Z,18.90
2018-07-26T05:21:17.101Z,18.90
2018-07-26T05:23:45.924Z,19.00
2018-07-26T05:26:14.721Z,19.00
2018-07-26T05:28:43.633Z,19.20
2018-07-26T05:31:12.387Z,19.20
2018-07-26T05:33:42.276Z,19.30
2018-07-26T05:36:11.083Z,19.40
2018-07-26T05:38:39.932Z,19.40
2018-07-26T05:41:08.767Z,19.50
2018-07-26T05:43:37.616Z,19.50
2018-07-26T05:46:06.516Z,19.60
2018-07-26T05:48:35.339Z,19.70
2018-07-26T05:51:04.141Z,19.80
2018-07-26T05:53:33.707Z,19.80
2018-07-26T05:56:02.516Z,19.90
2018-07-26T05:58:31.351Z,20.00
2018-07-26T06:01:00.144Z,20.10
2018-07-26T06:03:28.979Z,20.10
2018-07-26T06:05:57.798Z,20.20
2018-07-26T06:08:26.612Z,20.20
2018-07-26T06:10:56.417Z,20.30
2018-07-26T06:13:25.220Z,20.40
2018-07-26T06:15:54.068Z,20.40
2018-07-26T06:18:22.887Z,20.50
2018-07-26T06:20:51.685Z,20.60
2018-07-26T06:23:20.494Z,20.70
2018-07-26T06:25:49.295Z,20.80
2018-07-26T06:28:18.226Z,20.80
2018-07-26T06:30:46.998Z,20.90
2018-07-26T06:33:16.891Z,21.00
2018-07-26T06:35:45.691Z,21.00
2018-07-26T06:38:14.558Z,21.10
2018-07-26T06:40:43.515Z,21.10
2018-07-26T06:43:12.410Z,21.20
2018-07-26T06:45:41.324Z,21.20
2018-07-26T06:48:10.126Z,21.30
2018-07-26T06:50:38.995Z,21.40
2018-07-26T06:53:07.859Z,21.50
2018-07-26T06:55:36.671Z,21.60
2018-07-26T06:58:05.652Z,21.60
2018-07-26T07:00:34.529Z,21.70
2018-07-26T07:03:03.319Z,21.90
2018-07-26T07:05:32.151Z,22.10
2018-07-26T07:08:00.965Z,22.20
2018-07-26T07:10:29.777Z,22.40
2018-07-26T07:12:58.632Z,22.50
2018-07-26T07:15:27.435Z,22.60
2018-07-26T07:17:56.255Z,22.70
2018-07-26T07:20:25.089Z,22.70
2018-07-26T07:22:53.893Z,22.70
2018-07-26T07:25:22.687Z,22.80
2018-07-26T07:27:51.559Z,22.80
2018-07-26T07:30:20.279Z,22.80
2018-07-26T07:32:49.080Z,22.90
2018-07-26T07:35:17.880Z,22.90
2018-07-26T07:37:46.800Z,23.00
2018-07-26T07:40:15.576Z,23.10
2018-07-26T07:42:44.392Z,23.10
2018-07-26T07:45:13.210Z,23.20
2018-07-26T07:47:42.175Z,23.30
2018-07-26T07:50:10.937Z,23.50
2018-07-26T07:52:39.768Z,23.50
2018-07-26T07:57:37.064Z,23.70
2018-07-26T08:00:06.468Z,23.90
2018-07-26T08:02:35.276Z,24.00
2018-07-26T08:05:04.303Z,24.20
2018-07-26T08:07:33.088Z,24.10
2018-07-26T08:10:01.885Z,24.10
2018-07-26T08:12:30.774Z,24.30
2018-07-26T08:14:59.524Z,24.40
2018-07-26T08:17:28.320Z,24.50
2018-07-26T08:19:57.128Z,24.50
2018-07-26T08:22:27.004Z,24.60
2018-07-26T08:24:55.859Z,24.70
2018-07-26T08:27:24.661Z,24.80
2018-07-26T08:29:53.465Z,24.80
2018-07-26T08:32:22.311Z,24.90
2018-07-26T08:34:51.116Z,25.00
2018-07-26T08:37:19.932Z,25.00
2018-07-26T08:39:48.725Z,25.00
2018-07-26T08:42:17.507Z,25.20
2018-07-26T08:44:46.304Z,25.50
2018-07-26T08:47:15.099Z,25.70
2018-07-26T08:49:43.887Z,25.90
2018-07-26T08:52:12.734Z,26.00
2018-07-26T08:54:41.539Z,26.00
2018-07-26T08:57:10.332Z,26.20
2018-07-26T08:59:39.392Z,26.30
2018-07-26T09:02:08.201Z,26.50
2018-07-26T09:04:36.993Z,26.60
2018-07-26T09:07:05.797Z,26.70
2018-07-26T09:09:34.621Z,26.80
2018-07-26T09:12:03.425Z,26.90
2018-07-26T09:14:32.220Z,27.00
2018-07-26T09:17:01.023Z,27.10
2018-07-26T09:19:29.824Z,27.10
2018-07-26T09:21:59.691Z,27.20
2018-07-26T09:24:28.540Z,27.30
2018-07-26T09:29:25.827Z,27.50
2018-07-26T09:31:54.611Z,27.70
2018-07-26T09:34:23.428Z,27.80
2018-07-26T09:36:52.239Z,28.10
2018-07-26T09:39:21.055Z,28.20
2018-07-26T09:41:49.860Z,28.40
2018-07-26T09:44:18.681Z,28.70
2018-07-26T09:46:47.491Z,28.80
2018-07-26T09:49:16.320Z,28.90
2018-07-26T09:51:45.124Z,28.90
2018-07-26T09:54:13.916Z,29.10
2018-07-26T09:56:42.769Z,29.50
2018-07-26T09:59:11.607Z,29.80
2018-07-26T10:01:41.047Z,30.10
2018-07-26T10:04:09.847Z,30.50
2018-07-26T10:06:38.651Z,30.60
2018-07-26T10:09:09.464Z,30.60
2018-07-26T10:11:38.330Z,31.00
2018-07-26T10:14:07.229Z,31.20
2018-07-26T10:16:35.956Z,31.20
2018-07-26T10:19:04.791Z,31.30
2018-07-26T10:21:33.584Z,31.50
2018-07-26T10:24:02.429Z,31.40
2018-07-26T10:26:31.246Z,31.50
2018-07-26T10:29:00.066Z,31.40
2018-07-26T10:31:28.900Z,31.60
2018-07-26T10:33:57.719Z,31.60
2018-07-26T10:36:26.516Z,31.40
2018-07-26T10:38:55.316Z,31.10
2018-07-26T10:43:52.704Z,31.60
2018-07-26T10:46:21.595Z,31.40
2018-07-26T10:48:51.461Z,31.60
2018-07-26T10:51:20.247Z,32.00
2018-07-26T10:53:49.063Z,32.20
2018-07-26T10:58:47.402Z,32.40
2018-07-26T11:01:16.196Z,32.50
2018-07-26T11:03:45.108Z,32.60
2018-07-26T11:06:13.891Z,32.70
2018-07-26T11:08:42.860Z,32.80
2018-07-26T11:11:11.664Z,33.00
2018-07-26T11:13:40.512Z,32.80
2018-07-26T11:16:09.331Z,32.90
2018-07-26T11:18:38.120Z,32.70
2018-07-26T11:21:07.114Z,32.10
2018-07-26T11:23:35.897Z,32.50
2018-07-26T11:26:04.795Z,32.60
2018-07-26T11:28:33.632Z,31.90
2018-07-26T11:31:02.486Z,31.80
2018-07-26T11:33:31.320Z,32.00
2018-07-26T11:36:00.166Z,32.10
2018-07-26T11:38:29.039Z,32.60
2018-07-26T11:40:57.904Z,32.80
2018-07-26T11:43:26.760Z,33.10
2018-07-26T11:45:55.599Z,33.10
2018-07-26T11:48:24.431Z,33.00
2018-07-26T11:50:53.301Z,33.00
2018-07-26T11:53:22.111Z,32.80
2018-07-26T11:55:51.011Z,33.10
2018-07-26T11:58:19.811Z,33.40
2018-07-26T12:00:48.639Z,33.20
2018-07-26T12:03:17.531Z,33.00
2018-07-26T12:05:46.476Z,32.90
2018-07-26T12:08:15.271Z,33.50
2018-07-26T12:10:44.143Z,33.10
2018-07-26T12:13:13.021Z,33.10
2018-07-26T12:15:41.836Z,32.90
2018-07-26T12:18:10.784Z,33.50
2018-07-26T12:20:39.650Z,33.00
2018-07-26T12:23:08.574Z,33.20
2018-07-26T12:25:37.355Z,33.50
2018-07-26T12:28:08.309Z,34.00
2018-07-26T12:30:37.201Z,34.30
2018-07-26T12:33:06.112Z,34.50
2018-07-26T12:38:03.487Z,34.80
2018-07-26T12:40:32.280Z,34.80
2018-07-26T12:43:01.388Z,34.90
2018-07-26T12:45:30.231Z,34.70
2018-07-26T12:47:59.085Z,34.80
2018-07-26T12:50:27.910Z,35.10
2018-07-26T12:52:56.791Z,35.00
2018-07-26T12:55:25.637Z,34.90
2018-07-26T12:57:54.570Z,35.10
2018-07-26T13:00:23.393Z,34.70
2018-07-26T13:02:52.308Z,34.00
2018-07-26T13:05:21.179Z,34.40
2018-07-26T13:07:50.040Z,34.80
2018-07-26T13:10:23.581Z,34.50
2018-07-26T13:12:52.443Z,34.70
2018-07-26T13:15:21.280Z,34.20
2018-07-26T13:17:50.141Z,34.50
2018-07-26T13:22:47.520Z,34.70
2018-07-26T13:25:16.335Z,35.20
2018-07-26T13:27:45.180Z,35.30
2018-07-26T13:30:14.010Z,35.40
2018-07-26T13:32:42.767Z,35.60
2018-07-26T13:35:11.987Z,35.50
2018-07-26T13:37:53.112Z,35.30
2018-07-26T13:40:21.962Z,35.50
2018-07-26T13:42:50.732Z,35.80
2018-07-26T13:45:19.772Z,35.40
2018-07-26T13:47:48.592Z,35.30
2018-07-26T13:50:20.515Z,35.50
2018-07-26T13:52:49.343Z,35.60
2018-07-26T13:55:18.201Z,35.40
2018-07-26T13:57:47.040Z,35.60
2018-07-26T14:00:15.832Z,35.80
2018-07-26T14:02:44.660Z,35.80
2018-07-26T14:05:13.487Z,35.80
2018-07-26T14:07:42.347Z,35.50
2018-07-26T14:10:11.161Z,35.80
2018-07-26T14:12:39.987Z,36.00
2018-07-26T14:15:09.988Z,36.00
2018-07-26T14:17:39.098Z,36.10
2018-07-26T14:20:09.635Z,36.10
2018-07-26T14:22:38.932Z,36.00
2018-07-26T14:25:07.724Z,35.80
2018-07-26T14:27:36.601Z,35.70
2018-07-26T14:30:06.709Z,35.70
2018-07-26T14:32:35.588Z,35.60
2018-07-26T14:35:05.205Z,35.40
2018-07-26T14:37:34.175Z,35.40
2018-07-26T14:40:03.048Z,34.90
2018-07-26T14:42:31.908Z,35.30
2018-07-26T14:45:00.812Z,35.40
2018-07-26T14:47:29.572Z,35.50
2018-07-26T14:49:58.357Z,35.40
2018-07-26T14:52:27.155Z,35.20
2018-07-26T14:54:55.964Z,35.30
2018-07-26T14:57:24.756Z,35.40
2018-07-26T14:59:53.575Z,34.90
2018-07-26T15:02:22.413Z,34.30
2018-07-26T15:04:51.207Z,34.50
2018-07-26T15:07:20.030Z,34.50
2018-07-26T15:09:48.978Z,34.60
2018-07-26T15:12:17.764Z,34.70
2018-07-26T15:14:46.584Z,34.90
2018-07-26T15:17:15.400Z,34.90
2018-07-26T15:19:44.191Z,35.00
2018-07-26T15:22:14.230Z,35.10
2018-07-26T15:24:44.331Z,35.10
2018-07-26T15:27:13.131Z,35.00
2018-07-26T15:32:10.444Z,35.10
2018-07-26T15:34:39.192Z,35.10
2018-07-26T15:37:13.497Z,34.90
2018-07-26T15:39:42.280Z,34.90
2018-07-26T15:42:11.092Z,34.80
2018-07-26T15:44:39.978Z,34.70
2018-07-26T15:47:08.940Z,34.70
2018-07-26T15:49:38.864Z,34.60
2018-07-26T15:52:07.652Z,34.50
2018-07-26T15:54:36.466Z,34.60
2018-07-26T15:57:05.740Z,34.60
2018-07-26T15:59:34.556Z,34.60
2018-07-26T16:02:03.350Z,34.70
2018-07-26T16:04:32.312Z,34.70
2018-07-26T16:07:03.241Z,34.60
2018-07-26T16:09:32.040Z,34.30
2018-07-26T16:12:01.029Z,34.10
2018-07-26T16:14:30.001Z,34.10
2018-07-26T16:16:58.806Z,33.80
2018-07-26T16:19:28.721Z,33.90
2018-07-26T16:21:57.521Z,33.50
2018-07-26T16:24:26.311Z,33.50
2018-07-26T16:26:55.108Z,33.30
2018-07-26T16:29:23.947Z,33.40
2018-07-26T16:31:52.763Z,33.60
2018-07-26T16:34:21.571Z,33.30
2018-07-26T16:39:19.968Z,33.40
2018-07-26T16:41:48.748Z,33.10
2018-07-26T16:44:17.533Z,32.90
2018-07-26T16:46:46.320Z,32.90
2018-07-26T16:49:15.136Z,32.80
2018-07-26T16:51:43.920Z,33.00
2018-07-26T16:54:12.720Z,32.80
2018-07-26T16:56:41.528Z,32.60
2018-07-26T16:59:10.331Z,32.20
2018-07-26T17:01:40.192Z,32.00
2018-07-26T17:04:08.972Z,32.20
2018-07-26T17:06:37.791Z,32.20
2018-07-26T17:09:08.736Z,32.00
2018-07-26T17:11:37.551Z,32.10
2018-07-26T17:14:06.719Z,32.00
2018-07-26T17:16:35.510Z,32.00
2018-07-26T17:19:04.453Z,31.80
2018-07-26T17:21:33.226Z,32.00
2018-07-26T17:24:02.029Z,31.80
2018-07-26T17:26:30.850Z,31.80
2018-07-26T17:29:00.058Z,31.80
2018-07-26T17:33:57.355Z,31.70
2018-07-26T17:36:26.172Z,31.70
2018-07-26T17:38:54.951Z,31.60
2018-07-26T17:41:23.776Z,31.50
2018-07-26T17:43:52.688Z,31.10
2018-07-26T17:46:21.556Z,30.90
2018-07-26T17:48:50.595Z,30.90
2018-07-26T17:51:19.404Z,30.60
2018-07-26T17:53:48.256Z,30.50
2018-07-26T17:56:17.044Z,30.50
2018-07-26T17:58:46.715Z,30.50
2018-07-26T18:01:15.556Z,30.30
2018-07-26T18:03:46.372Z,30.10
2018-07-26T18:06:15.162Z,30.00
2018-07-26T18:08:43.997Z,29.80
2018-07-26T18:11:12.775Z,29.70
2018-07-26T18:13:41.617Z,29.70
2018-07-26T18:16:10.420Z,29.70
2018-07-26T18:18:39.237Z,29.50
2018-07-26T18:21:08.054Z,29.30
2018-07-26T18:23:36.935Z,29.00
2018-07-26T18:26:05.806Z,28.70
2018-07-26T18:28:34.594Z,28.50
2018-07-26T18:31:03.452Z,28.30
2018-07-26T18:33:32.260Z,28.20
2018-07-26T18:36:01.074Z,28.10
2018-07-26T18:38:29.916Z,28.00
2018-07-26T18:40:58.919Z,28.00
2018-07-26T18:43:27.775Z,28.00
2018-07-26T18:45:56.627Z,28.00
2018-07-26T18:48:25.495Z,28.00
2018-07-26T18:50:54.334Z,27.90
2018-07-26T18:53:23.159Z,27.80
2018-07-26T18:55:51.948Z,27.70
2018-07-26T18:58:20.753Z,27.50
2018-07-26T19:00:49.544Z,27.50
2018-07-26T19:03:18.320Z,27.40
2018-07-26T19:05:47.165Z,27.30
2018-07-26T19:08:15.952Z,27.20
2018-07-26T19:10:46.824Z,27.20
2018-07-26T19:13:15.607Z,27.10
2018-07-26T19:15:45.459Z,27.10
2018-07-26T19:18:14.252Z,27.00
2018-07-26T19:20:43.053Z,27.10
2018-07-26T19:23:15.072Z,27.20
2018-07-26T19:25:44.100Z,27.20
2018-07-26T19:28:12.940Z,27.30
2018-07-26T19:30:41.700Z,27.30
2018-07-26T19:38:08.684Z,27.30
2018-07-26T19:40:37.736Z,27.20
2018-07-26T19:43:06.619Z,27.10
2018-07-26T19:45:35.433Z,27.10
2018-07-26T19:48:04.258Z,27.10
2018-07-26T19:50:33.103Z,27.00
2018-07-26T19:53:03.090Z,27.00
2018-07-26T19:55:31.883Z,26.90
2018-07-26T19:58:00.676Z,26.80
2018-07-26T20:00:29.540Z,26.80
2018-07-26T20:02:58.333Z,26.70
2018-07-26T20:05:27.202Z,26.70
2018-07-26T20:07:55.999Z,26.70
2018-07-26T20:10:24.796Z,26.60
2018-07-26T20:12:53.796Z,26.60
2018-07-26T20:15:22.636Z,26.60
2018-07-26T20:17:51.440Z,26.70
2018-07-26T20:22:48.755Z,26.60
2018-07-26T20:25:17.592Z,26.50
2018-07-26T20:27:46.439Z,26.60
2018-07-26T20:30:15.308Z,26.60
2018-07-26T20:32:44.240Z,26.60
2018-07-26T20:35:13.062Z,26.50
2018-07-26T20:37:41.928Z,26.60
2018-07-26T20:40:12.171Z,26.50
2018-07-26T20:45:11.222Z,26.50
2018-07-26T20:47:40.078Z,26.50
2018-07-26T20:50:09.572Z,26.40
2018-07-26T20:52:38.772Z,26.30
2018-07-26T20:55:07.682Z,26.30
2018-07-26T20:57:36.476Z,26.30
2018-07-26T21:00:07.800Z,26.30
2018-07-26T21:02:36.656Z,26.30
2018-07-26T21:05:05.484Z,26.20
2018-07-26T21:10:05.815Z,26.10
2018-07-26T21:12:34.759Z,26.00
2018-07-26T21:15:03.680Z,25.90
2018-07-26T21:17:32.500Z,25.70
2018-07-26T21:20:01.328Z,25.40
2018-07-26T21:22:31.143Z,25.10
2018-07-26T21:25:00.033Z,24.80
2018-07-26T21:27:30.081Z,24.60
2018-07-26T21:29:58.887Z,24.30
2018-07-26T21:32:27.669Z,24.20
2018-07-26T21:34:56.516Z,24.10
2018-07-26T21:37:25.437Z,23.80
2018-07-26T21:39:54.296Z,23.60
2018-07-26T21:42:23.101Z,23.60
2018-07-26T21:44:58.436Z,23.60
2018-07-26T21:47:27.422Z,23.60
2018-07-26T21:49:56.216Z,23.60
2018-07-26T21:52:25.423Z,23.50
2018-07-26T21:54:54.371Z,23.50
2018-07-26T21:57:23.207Z,23.50
2018-07-26T21:59:52.035Z,23.50
2018-07-26T22:04:49.534Z,23.40
2018-07-26T22:07:18.433Z,23.40
2018-07-26T22:09:47.307Z,23.30
2018-07-26T22:12:16.124Z,23.20
2018-07-26T22:14:45.016Z,23.20
2018-07-26T22:17:13.836Z,23.10
2018-07-26T22:22:11.128Z,23.10
2018-07-26T22:24:39.993Z,23.00
2018-07-26T22:27:08.820Z,22.90
2018-07-26T22:29:37.608Z,22.80
2018-07-26T22:32:06.420Z,22.70
2018-07-26T22:34:35.319Z,22.60
2018-07-26T22:37:04.109Z,22.60
2018-07-26T22:39:32.913Z,22.60
2018-07-26T22:42:01.768Z,22.50
2018-07-26T22:44:30.661Z,22.40
2018-07-26T22:46:59.571Z,22.40
2018-07-26T22:49:28.350Z,22.30
2018-07-26T22:51:57.205Z,22.20
2018-07-26T22:54:26.013Z,22.20
2018-07-26T22:56:54.967Z,22.20
2018-07-26T22:59:23.748Z,22.10
2018-07-26T23:04:21.082Z,21.90
2018-07-26T23:06:49.927Z,21.90
2018-07-26T23:09:18.752Z,21.90
2018-07-26T23:11:47.607Z,21.80
2018-07-26T23:14:16.428Z,21.70
2018-07-26T23:16:45.291Z,21.80
2018-07-26T23:19:14.129Z,21.70
2018-07-26T23:21:43.159Z,21.60
2018-07-26T23:24:11.945Z,21.60
2018-07-26T23:26:40.816Z,21.60
2018-07-26T23:29:09.681Z,21.50
2018-07-26T23:31:38.530Z,21.60
2018-07-26T23:34:07.318Z,21.50
2018-07-26T23:36:36.132Z,21.50
2018-07-26T23:39:10.420Z,21.50
2018-07-26T23:44:09.157Z,21.40
2018-07-26T23:49:07.043Z,21.40
2018-07-26T23:51:35.863Z,21.40
2018-07-26T23:54:04.827Z,21.30
2018-07-26T23:56:33.707Z,21.20
2018-07-26T23:59:02.576Z,21.20
